sensor_id;sensor_type;location;lat;lon;timestamp;pressure;altitude;pressure_sealevel;temperature;humidity
56681;BME280;42558;52.388;13.390;2022-12-10T00:00:17;100416.38;;;-2.48;100.00
56681;BME280;42558;52.388;13.390;2022-12-10T00:02:45;100414.02;;;-2.47;100.00
56681;BME280;42558;52.388;13.390;2022-12-10T00:05:14;100418.86;;;-2.43;100.00
56681;BME280;42558;52.388;13.390;2022-12-10T00:07:42;100420.04;;;-2.50;100.00
56681;BME280;42558;52.388;13.390;2022-12-10T00:10:10;100418.33;;;-2.47;100.00
56681;BME280;42558;52.388;13.390;2022-12-10T00:12:39;100417.38;;;-2.54;100.00
56681;BME280;42558;52.388;13.390;2022-12-10T00:15:08;100418.23;;;-2.51;100.00
56681;BME280;42558;52.388;13.390;2022-12-10T00:17:36;100415.04;;;-2.56;100.00
56681;BME280;42558;52.388;13.390;2022-12-10T00:20:05;100423.48;;;-2.55;100.00
56681;BME280;42558;52.388;13.390;2022-12-10T00:22:35;100424.05;;;-2.55;100.00
56681;BME280;42558;52.388;13.390;2022-12-10T00:25:04;100421.01;;;-2.54;100.00
56681;BME280;42558;52.388;13.390;2022-12-10T00:27:32;100425.09;;;-2.58;100.00
56681;BME280;42558;52.388;13.390;2022-12-10T00:30:01;100423.40;;;-2.62;100.00
56681;BME280;42558;52.388;13.390;2022-12-10T00:32:29;100427.41;;;-2.64;100.00
56681;BME280;42558;52.388;13.390;2022-12-10T00:34:58;100424.68;;;-2.64;100.00
56681;BME280;42558;52.388;13.390;2022-12-10T00:37:26;100428.46;;;-2.67;100.00
56681;BME280;42558;52.388;13.390;2022-12-10T00:39:55;100431.27;;;-2.69;100.00
56681;BME280;42558;52.388;13.390;2022-12-10T00:42:23;100435.04;;;-2.69;100.00
56681;BME280;42558;52.388;13.390;2022-12-10T00:44:51;100435.98;;;-2.65;100.00
56681;BME280;42558;52.388;13.390;2022-12-10T00:47:20;100438.08;;;-2.64;100.00
56681;BME280;42558;52.388;13.390;2022-12-10T00:49:48;100435.97;;;-2.65;100.00
56681;BME280;42558;52.388;13.390;2022-12-10T00:52:17;100438.45;;;-2.64;100.00
56681;BME280;42558;52.388;13.390;2022-12-10T00:54:45;100438.21;;;-2.65;100.00
56681;BME280;42558;52.388;13.390;2022-12-10T00:57:14;100440.94;;;-2.65;100.00
56681;BME280;42558;52.388;13.390;2022-12-10T00:59:42;100441.06;;;-2.69;100.00
56681;BME280;42558;52.388;13.390;2022-12-10T01:02:11;100439.27;;;-2.70;100.00
56681;BME280;42558;52.388;13.390;2022-12-10T01:04:39;100436.83;;;-2.76;100.00
56681;BME280;42558;52.388;13.390;2022-12-10T01:07:08;100441.11;;;-2.82;100.00
56681;BME280;42558;52.388;13.390;2022-12-10T01:09:39;100442.02;;;-2.81;100.00
56681;BME280;42558;52.388;13.390;2022-12-10T01:12:10;100441.85;;;-2.79;100.00
56681;BME280;42558;52.388;13.390;2022-12-10T01:14:42;100445.25;;;-2.80;100.00
56681;BME280;42558;52.388;13.390;2022-12-10T01:17:12;100442.80;;;-2.83;100.00
56681;BME280;42558;52.388;13.390;2022-12-10T01:19:42;100440.08;;;-2.82;100.00
56681;BME280;42558;52.388;13.390;2022-12-10T01:22:12;100441.70;;;-2.87;100.00
56681;BME280;42558;52.388;13.390;2022-12-10T01:24:42;100437.94;;;-2.89;100.00
56681;BME280;42558;52.388;13.390;2022-12-10T01:27:12;100433.90;;;-2.90;100.00
56681;BME280;42558;52.388;13.390;2022-12-10T01:29:41;100427.91;;;-2.90;100.00
56681;BME280;42558;52.388;13.390;2022-12-10T01:32:11;100432.33;;;-2.91;100.00
56681;BME280;42558;52.388;13.390;2022-12-10T01:34:41;100433.23;;;-2.90;100.00
56681;BME280;42558;52.388;13.390;2022-12-10T01:37:11;100430.70;;;-2.89;100.00
56681;BME280;42558;52.388;13.390;2022-12-10T01:39:41;100436.42;;;-2.91;100.00
56681;BME280;42558;52.388;13.390;2022-12-10T01:42:14;100435.50;;;-2.92;100.00
56681;BME280;42558;52.388;13.390;2022-12-10T01:47:14;100427.94;;;-2.92;100.00
56681;BME280;42558;52.388;13.390;2022-12-10T01:49:44;100426.10;;;-2.91;100.00
56681;BME280;42558;52.388;13.390;2022-12-10T01:52:14;100426.39;;;-2.92;100.00
56681;BME280;42558;52.388;13.390;2022-12-10T01:54:46;100428.94;;;-2.93;100.00
56681;BME280;42558;52.388;13.390;2022-12-10T01:57:21;100427.08;;;-2.92;100.00
56681;BME280;42558;52.388;13.390;2022-12-10T01:59:57;100423.92;;;-2.93;100.00
56681;BME280;42558;52.388;13.390;2022-12-10T02:02:42;100425.41;;;-2.91;100.00
56681;BME280;42558;52.388;13.390;2022-12-10T02:05:44;100426.95;;;-2.94;100.00
56681;BME280;42558;52.388;13.390;2022-12-10T02:08:41;100432.41;;;-2.98;100.00
56681;BME280;42558;52.388;13.390;2022-12-10T02:11:24;100433.96;;;-2.98;100.00
56681;BME280;42558;52.388;13.390;2022-12-10T02:14:23;100428.18;;;-2.97;100.00
56681;BME280;42558;52.388;13.390;2022-12-10T02:17:20;100426.54;;;-2.93;100.00
56681;BME280;42558;52.388;13.390;2022-12-10T02:23:04;100429.94;;;-2.99;100.00
56681;BME280;42558;52.388;13.390;2022-12-10T02:28:52;100430.02;;;-2.97;100.00
56681;BME280;42558;52.388;13.390;2022-12-10T02:31:30;100428.00;;;-2.97;100.00
56681;BME280;42558;52.388;13.390;2022-12-10T02:34:05;100427.71;;;-2.96;100.00
56681;BME280;42558;52.388;13.390;2022-12-10T02:36:42;100425.86;;;-2.95;100.00
56681;BME280;42558;52.388;13.390;2022-12-10T02:39:20;100422.29;;;-2.92;100.00
56681;BME280;42558;52.388;13.390;2022-12-10T02:41:54;100425.91;;;-2.92;100.00
56681;BME280;42558;52.388;13.390;2022-12-10T02:44:26;100427.13;;;-2.97;100.00
56681;BME280;42558;52.388;13.390;2022-12-10T02:46:58;100426.88;;;-2.95;100.00
56681;BME280;42558;52.388;13.390;2022-12-10T02:49:28;100429.13;;;-2.92;100.00
56681;BME280;42558;52.388;13.390;2022-12-10T02:52:05;100429.05;;;-2.94;100.00
56681;BME280;42558;52.388;13.390;2022-12-10T02:54:41;100436.73;;;-2.97;100.00
56681;BME280;42558;52.388;13.390;2022-12-10T03:00:16;100433.88;;;-2.91;100.00
56681;BME280;42558;52.388;13.390;2022-12-10T03:03:20;100434.23;;;-2.88;100.00
56681;BME280;42558;52.388;13.390;2022-12-10T03:09:09;100447.42;;;-2.89;100.00
56681;BME280;42558;52.388;13.390;2022-12-10T03:11:39;100449.44;;;-2.95;100.00
56681;BME280;42558;52.388;13.390;2022-12-10T03:14:25;100449.70;;;-2.88;100.00
56681;BME280;42558;52.388;13.390;2022-12-10T03:16:59;100448.14;;;-2.83;100.00
56681;BME280;42558;52.388;13.390;2022-12-10T03:19:47;100450.01;;;-2.78;100.00
56681;BME280;42558;52.388;13.390;2022-12-10T03:22:18;100448.83;;;-2.74;100.00
56681;BME280;42558;52.388;13.390;2022-12-10T03:24:50;100448.75;;;-2.75;100.00
56681;BME280;42558;52.388;13.390;2022-12-10T03:27:23;100449.58;;;-2.76;100.00
56681;BME280;42558;52.388;13.390;2022-12-10T03:29:57;100451.70;;;-2.78;100.00
56681;BME280;42558;52.388;13.390;2022-12-10T03:32:29;100451.33;;;-2.84;100.00
56681;BME280;42558;52.388;13.390;2022-12-10T03:35:01;100448.98;;;-2.88;100.00
56681;BME280;42558;52.388;13.390;2022-12-10T03:37:32;100451.56;;;-2.88;100.00
56681;BME280;42558;52.388;13.390;2022-12-10T03:40:05;100454.30;;;-2.89;100.00
56681;BME280;42558;52.388;13.390;2022-12-10T03:42:37;100455.34;;;-2.83;100.00
56681;BME280;42558;52.388;13.390;2022-12-10T03:45:07;100454.70;;;-2.80;100.00
56681;BME280;42558;52.388;13.390;2022-12-10T03:47:37;100456.38;;;-2.83;100.00
56681;BME280;42558;52.388;13.390;2022-12-10T03:50:08;100459.29;;;-2.89;100.00
56681;BME280;42558;52.388;13.390;2022-12-10T03:52:39;100465.05;;;-3.01;100.00
56681;BME280;42558;52.388;13.390;2022-12-10T03:55:10;100466.98;;;-3.00;100.00
56681;BME280;42558;52.388;13.390;2022-12-10T03:57:40;100468.20;;;-2.97;100.00
56681;BME280;42558;52.388;13.390;2022-12-10T04:00:11;100463.52;;;-2.92;100.00
56681;BME280;42558;52.388;13.390;2022-12-10T04:02:42;100464.61;;;-2.91;100.00
56681;BME280;42558;52.388;13.390;2022-12-10T04:05:10;100466.77;;;-2.98;100.00
56681;BME280;42558;52.388;13.390;2022-12-10T04:07:38;100466.88;;;-2.99;100.00
56681;BME280;42558;52.388;13.390;2022-12-10T04:10:07;100470.93;;;-2.92;100.00
56681;BME280;42558;52.388;13.390;2022-12-10T04:12:34;100471.80;;;-2.92;100.00
56681;BME280;42558;52.388;13.390;2022-12-10T04:15:04;100470.05;;;-2.93;100.00
56681;BME280;42558;52.388;13.390;2022-12-10T04:17:52;100470.52;;;-2.93;100.00
56681;BME280;42558;52.388;13.390;2022-12-10T04:20:22;100465.55;;;-2.90;100.00
56681;BME280;42558;52.388;13.390;2022-12-10T04:23:11;100463.60;;;-2.86;100.00
56681;BME280;42558;52.388;13.390;2022-12-10T04:25:59;100460.91;;;-2.85;100.00
56681;BME280;42558;52.388;13.390;2022-12-10T04:28:48;100461.47;;;-2.81;100.00
56681;BME280;42558;52.388;13.390;2022-12-10T04:31:17;100459.31;;;-2.86;100.00
56681;BME280;42558;52.388;13.390;2022-12-10T04:33:47;100458.02;;;-2.82;100.00
56681;BME280;42558;52.388;13.390;2022-12-10T04:36:17;100462.80;;;-2.85;100.00
56681;BME280;42558;52.388;13.390;2022-12-10T04:38:46;100463.65;;;-2.85;100.00
56681;BME280;42558;52.388;13.390;2022-12-10T04:41:16;100464.86;;;-2.88;100.00
56681;BME280;42558;52.388;13.390;2022-12-10T04:43:46;100468.36;;;-2.89;100.00
56681;BME280;42558;52.388;13.390;2022-12-10T04:46:16;100467.85;;;-2.92;100.00
56681;BME280;42558;52.388;13.390;2022-12-10T04:48:46;100470.06;;;-2.93;100.00
56681;BME280;42558;52.388;13.390;2022-12-10T04:51:16;100467.33;;;-2.89;100.00
56681;BME280;42558;52.388;13.390;2022-12-10T04:53:46;100467.63;;;-2.90;100.00
56681;BME280;42558;52.388;13.390;2022-12-10T04:56:15;100470.45;;;-2.94;100.00
56681;BME280;42558;52.388;13.390;2022-12-10T04:58:45;100470.80;;;-2.94;100.00
56681;BME280;42558;52.388;13.390;2022-12-10T05:01:16;100469.81;;;-2.91;100.00
56681;BME280;42558;52.388;13.390;2022-12-10T05:03:47;100470.38;;;-2.88;100.00
56681;BME280;42558;52.388;13.390;2022-12-10T05:06:19;100470.80;;;-2.92;100.00
56681;BME280;42558;52.388;13.390;2022-12-10T05:08:49;100469.10;;;-2.91;100.00
56681;BME280;42558;52.388;13.390;2022-12-10T05:11:22;100471.64;;;-2.92;100.00
56681;BME280;42558;52.388;13.390;2022-12-10T05:13:53;100475.12;;;-2.88;100.00
56681;BME280;42558;52.388;13.390;2022-12-10T05:16:28;100475.95;;;-2.89;100.00
56681;BME280;42558;52.388;13.390;2022-12-10T05:19:00;100472.58;;;-2.88;100.00
56681;BME280;42558;52.388;13.390;2022-12-10T05:21:30;100474.73;;;-2.81;100.00
56681;BME280;42558;52.388;13.390;2022-12-10T05:24:19;100473.38;;;-2.75;100.00
56681;BME280;42558;52.388;13.390;2022-12-10T05:26:47;100475.22;;;-2.76;100.00
56681;BME280;42558;52.388;13.390;2022-12-10T05:29:19;100471.48;;;-2.84;100.00
56681;BME280;42558;52.388;13.390;2022-12-10T05:31:47;100472.94;;;-2.85;100.00
56681;BME280;42558;52.388;13.390;2022-12-10T05:34:15;100474.16;;;-2.88;100.00
56681;BME280;42558;52.388;13.390;2022-12-10T05:36:43;100478.34;;;-2.87;100.00
56681;BME280;42558;52.388;13.390;2022-12-10T05:39:12;100480.88;;;-2.79;100.00
56681;BME280;42558;52.388;13.390;2022-12-10T05:41:41;100482.80;;;-2.76;100.00
56681;BME280;42558;52.388;13.390;2022-12-10T05:44:09;100480.04;;;-2.76;100.00
56681;BME280;42558;52.388;13.390;2022-12-10T05:46:38;100481.29;;;-2.73;100.00
56681;BME280;42558;52.388;13.390;2022-12-10T05:49:07;100478.12;;;-2.74;100.00
56681;BME280;42558;52.388;13.390;2022-12-10T05:51:37;100478.28;;;-2.80;100.00
56681;BME280;42558;52.388;13.390;2022-12-10T05:54:08;100476.86;;;-2.77;100.00
56681;BME280;42558;52.388;13.390;2022-12-10T05:56:38;100475.04;;;-2.82;100.00
56681;BME280;42558;52.388;13.390;2022-12-10T05:59:09;100476.55;;;-2.80;100.00
56681;BME280;42558;52.388;13.390;2022-12-10T06:01:45;100475.39;;;-2.84;100.00
56681;BME280;42558;52.388;13.390;2022-12-10T06:04:15;100479.47;;;-2.82;100.00
56681;BME280;42558;52.388;13.390;2022-12-10T06:06:45;100475.84;;;-2.80;100.00
56681;BME280;42558;52.388;13.390;2022-12-10T06:09:17;100479.38;;;-2.78;100.00
56681;BME280;42558;52.388;13.390;2022-12-10T06:11:46;100478.41;;;-2.80;100.00
56681;BME280;42558;52.388;13.390;2022-12-10T06:14:16;100474.13;;;-2.80;100.00
56681;BME280;42558;52.388;13.390;2022-12-10T06:16:46;100476.21;;;-2.82;100.00
56681;BME280;42558;52.388;13.390;2022-12-10T06:19:16;100473.83;;;-2.82;100.00
56681;BME280;42558;52.388;13.390;2022-12-10T06:21:46;100475.39;;;-2.81;100.00
56681;BME280;42558;52.388;13.390;2022-12-10T06:24:15;100477.37;;;-2.80;100.00
56681;BME280;42558;52.388;13.390;2022-12-10T06:26:45;100479.56;;;-2.78;100.00
56681;BME280;42558;52.388;13.390;2022-12-10T06:29:15;100483.11;;;-2.76;100.00
56681;BME280;42558;52.388;13.390;2022-12-10T06:31:45;100485.35;;;-2.73;100.00
56681;BME280;42558;52.388;13.390;2022-12-10T06:34:15;100486.85;;;-2.74;100.00
56681;BME280;42558;52.388;13.390;2022-12-10T06:36:44;100481.35;;;-2.69;100.00
56681;BME280;42558;52.388;13.390;2022-12-10T06:39:14;100485.50;;;-2.66;100.00
56681;BME280;42558;52.388;13.390;2022-12-10T06:41:44;100487.87;;;-2.66;100.00
56681;BME280;42558;52.388;13.390;2022-12-10T06:44:15;100493.55;;;-2.66;100.00
56681;BME280;42558;52.388;13.390;2022-12-10T06:46:45;100499.77;;;-2.66;100.00
56681;BME280;42558;52.388;13.390;2022-12-10T06:49:14;100497.89;;;-2.63;100.00
56681;BME280;42558;52.388;13.390;2022-12-10T06:51:44;100498.04;;;-2.61;100.00
56681;BME280;42558;52.388;13.390;2022-12-10T06:54:13;100502.52;;;-2.57;100.00
56681;BME280;42558;52.388;13.390;2022-12-10T06:56:41;100504.00;;;-2.59;100.00
56681;BME280;42558;52.388;13.390;2022-12-10T06:59:09;100509.53;;;-2.55;100.00
56681;BME280;42558;52.388;13.390;2022-12-10T07:01:38;100510.16;;;-2.59;100.00
56681;BME280;42558;52.388;13.390;2022-12-10T07:04:08;100510.70;;;-2.59;100.00
56681;BME280;42558;52.388;13.390;2022-12-10T07:06:38;100514.80;;;-2.59;100.00
56681;BME280;42558;52.388;13.390;2022-12-10T07:09:06;100512.81;;;-2.61;100.00
56681;BME280;42558;52.388;13.390;2022-12-10T07:11:35;100517.05;;;-2.59;100.00
56681;BME280;42558;52.388;13.390;2022-12-10T07:14:03;100515.52;;;-2.56;100.00
56681;BME280;42558;52.388;13.390;2022-12-10T07:16:32;100516.45;;;-2.55;100.00
56681;BME280;42558;52.388;13.390;2022-12-10T07:19:02;100516.67;;;-2.54;100.00
56681;BME280;42558;52.388;13.390;2022-12-10T07:21:35;100517.55;;;-2.54;100.00
56681;BME280;42558;52.388;13.390;2022-12-10T07:24:16;100518.45;;;-2.59;100.00
56681;BME280;42558;52.388;13.390;2022-12-10T07:26:47;100518.93;;;-2.56;100.00
56681;BME280;42558;52.388;13.390;2022-12-10T07:29:20;100521.61;;;-2.55;100.00
56681;BME280;42558;52.388;13.390;2022-12-10T07:31:50;100522.11;;;-2.53;100.00
56681;BME280;42558;52.388;13.390;2022-12-10T07:34:20;100525.45;;;-2.49;100.00
56681;BME280;42558;52.388;13.390;2022-12-10T07:36:50;100530.46;;;-2.51;100.00
56681;BME280;42558;52.388;13.390;2022-12-10T07:39:19;100528.85;;;-2.52;100.00
56681;BME280;42558;52.388;13.390;2022-12-10T07:41:51;100527.35;;;-2.51;100.00
56681;BME280;42558;52.388;13.390;2022-12-10T07:44:24;100529.65;;;-2.47;100.00
56681;BME280;42558;52.388;13.390;2022-12-10T07:46:55;100531.41;;;-2.47;100.00
56681;BME280;42558;52.388;13.390;2022-12-10T07:49:25;100531.96;;;-2.46;100.00
56681;BME280;42558;52.388;13.390;2022-12-10T07:51:55;100539.10;;;-2.41;100.00
56681;BME280;42558;52.388;13.390;2022-12-10T07:54:25;100541.16;;;-2.39;100.00
56681;BME280;42558;52.388;13.390;2022-12-10T07:56:55;100541.55;;;-2.35;100.00
56681;BME280;42558;52.388;13.390;2022-12-10T07:59:24;100546.60;;;-2.32;100.00
56681;BME280;42558;52.388;13.390;2022-12-10T08:01:54;100548.80;;;-2.30;100.00
56681;BME280;42558;52.388;13.390;2022-12-10T08:04:28;100553.20;;;-2.33;100.00
56681;BME280;42558;52.388;13.390;2022-12-10T08:06:59;100556.86;;;-2.30;100.00
56681;BME280;42558;52.388;13.390;2022-12-10T08:09:29;100558.12;;;-2.27;100.00
56681;BME280;42558;52.388;13.390;2022-12-10T08:11:58;100560.04;;;-2.26;100.00
56681;BME280;42558;52.388;13.390;2022-12-10T08:14:28;100557.61;;;-2.24;100.00
56681;BME280;42558;52.388;13.390;2022-12-10T08:16:58;100560.52;;;-2.24;100.00
56681;BME280;42558;52.388;13.390;2022-12-10T08:19:28;100559.96;;;-2.22;100.00
56681;BME280;42558;52.388;13.390;2022-12-10T08:22:00;100563.17;;;-2.23;100.00
56681;BME280;42558;52.388;13.390;2022-12-10T08:24:30;100567.45;;;-2.20;100.00
56681;BME280;42558;52.388;13.390;2022-12-10T08:27:00;100566.52;;;-2.19;100.00
56681;BME280;42558;52.388;13.390;2022-12-10T08:29:30;100569.52;;;-2.17;100.00
56681;BME280;42558;52.388;13.390;2022-12-10T08:31:59;100569.63;;;-2.21;100.00
56681;BME280;42558;52.388;13.390;2022-12-10T08:34:29;100575.97;;;-2.22;100.00
56681;BME280;42558;52.388;13.390;2022-12-10T08:36:59;100576.15;;;-2.22;100.00
56681;BME280;42558;52.388;13.390;2022-12-10T08:39:29;100571.53;;;-2.21;100.00
56681;BME280;42558;52.388;13.390;2022-12-10T08:41:59;100575.33;;;-2.21;100.00
56681;BME280;42558;52.388;13.390;2022-12-10T08:44:28;100573.19;;;-2.16;100.00
56681;BME280;42558;52.388;13.390;2022-12-10T08:46:58;100568.42;;;-2.16;100.00
56681;BME280;42558;52.388;13.390;2022-12-10T08:49:28;100574.42;;;-2.19;100.00
56681;BME280;42558;52.388;13.390;2022-12-10T08:51:58;100574.28;;;-2.18;100.00
56681;BME280;42558;52.388;13.390;2022-12-10T08:54:28;100581.16;;;-2.10;100.00
56681;BME280;42558;52.388;13.390;2022-12-10T08:56:57;100584.84;;;-2.09;100.00
56681;BME280;42558;52.388;13.390;2022-12-10T08:59:27;100589.61;;;-2.07;100.00
56681;BME280;42558;52.388;13.390;2022-12-10T09:01:56;100592.39;;;-2.07;100.00
56681;BME280;42558;52.388;13.390;2022-12-10T09:04:24;100591.87;;;-2.07;100.00
56681;BME280;42558;52.388;13.390;2022-12-10T09:06:53;100588.30;;;-2.06;100.00
56681;BME280;42558;52.388;13.390;2022-12-10T09:09:21;100590.14;;;-2.04;100.00
56681;BME280;42558;52.388;13.390;2022-12-10T09:11:49;100589.66;;;-2.01;100.00
56681;BME280;42558;52.388;13.390;2022-12-10T09:14:18;100588.73;;;-1.96;100.00
56681;BME280;42558;52.388;13.390;2022-12-10T09:16:46;100587.64;;;-1.94;100.00
56681;BME280;42558;52.388;13.390;2022-12-10T09:19:15;100589.68;;;-2.00;100.00
56681;BME280;42558;52.388;13.390;2022-12-10T09:21:47;100590.89;;;-1.98;100.00
56681;BME280;42558;52.388;13.390;2022-12-10T09:24:15;100591.64;;;-1.99;100.00
56681;BME280;42558;52.388;13.390;2022-12-10T09:26:44;100592.61;;;-2.00;100.00
56681;BME280;42558;52.388;13.390;2022-12-10T09:29:13;100593.00;;;-2.00;100.00
56681;BME280;42558;52.388;13.390;2022-12-10T09:31:40;100592.32;;;-2.00;100.00
56681;BME280;42558;52.388;13.390;2022-12-10T09:34:10;100594.48;;;-1.92;100.00
56681;BME280;42558;52.388;13.390;2022-12-10T09:36:37;100592.23;;;-1.89;100.00
56681;BME280;42558;52.388;13.390;2022-12-10T09:39:06;100590.54;;;-1.89;100.00
56681;BME280;42558;52.388;13.390;2022-12-10T09:45:06;100587.45;;;-1.83;100.00
56681;BME280;42558;52.388;13.390;2022-12-10T09:50:53;100584.26;;;-1.79;100.00
56681;BME280;42558;52.388;13.390;2022-12-10T09:53:28;100583.16;;;-1.80;100.00
56681;BME280;42558;52.388;13.390;2022-12-10T09:55:58;100587.63;;;-1.80;100.00
56681;BME280;42558;52.388;13.390;2022-12-10T09:58:28;100587.15;;;-1.74;100.00
56681;BME280;42558;52.388;13.390;2022-12-10T10:01:06;100585.65;;;-1.70;100.00
56681;BME280;42558;52.388;13.390;2022-12-10T10:03:40;100582.40;;;-1.78;100.00
56681;BME280;42558;52.388;13.390;2022-12-10T10:06:13;100580.30;;;-1.70;100.00
56681;BME280;42558;52.388;13.390;2022-12-10T10:08:51;100581.69;;;-1.64;100.00
56681;BME280;42558;52.388;13.390;2022-12-10T10:11:28;100582.48;;;-1.56;100.00
56681;BME280;42558;52.388;13.390;2022-12-10T10:14:05;100584.98;;;-1.58;100.00
56681;BME280;42558;52.388;13.390;2022-12-10T10:19:27;100581.77;;;-1.51;100.00
56681;BME280;42558;52.388;13.390;2022-12-10T10:21:56;100584.71;;;-1.56;100.00
56681;BME280;42558;52.388;13.390;2022-12-10T10:24:47;100585.61;;;-1.50;100.00
56681;BME280;42558;52.388;13.390;2022-12-10T10:27:28;100584.22;;;-1.50;100.00
56681;BME280;42558;52.388;13.390;2022-12-10T10:30:00;100588.44;;;-1.40;100.00
56681;BME280;42558;52.388;13.390;2022-12-10T10:35:06;100586.48;;;-1.44;100.00
56681;BME280;42558;52.388;13.390;2022-12-10T10:37:42;100583.92;;;-1.41;100.00
56681;BME280;42558;52.388;13.390;2022-12-10T10:40:23;100584.16;;;-1.49;100.00
56681;BME280;42558;52.388;13.390;2022-12-10T10:42:56;100576.33;;;-1.53;100.00
56681;BME280;42558;52.388;13.390;2022-12-10T10:45:32;100574.64;;;-1.55;100.00
56681;BME280;42558;52.388;13.390;2022-12-10T10:48:24;100571.91;;;-1.49;100.00
56681;BME280;42558;52.388;13.390;2022-12-10T10:51:13;100569.57;;;-1.50;100.00
56681;BME280;42558;52.388;13.390;2022-12-10T10:53:53;100567.54;;;-1.44;100.00
56681;BME280;42558;52.388;13.390;2022-12-10T10:56:41;100565.13;;;-1.50;100.00
56681;BME280;42558;52.388;13.390;2022-12-10T11:01:55;100557.85;;;-1.45;100.00
56681;BME280;42558;52.388;13.390;2022-12-10T11:04:52;100556.96;;;-1.42;100.00
56681;BME280;42558;52.388;13.390;2022-12-10T11:07:40;100555.83;;;-1.44;100.00
56681;BME280;42558;52.388;13.390;2022-12-10T11:10:22;100558.94;;;-1.34;100.00
56681;BME280;42558;52.388;13.390;2022-12-10T11:13:26;100559.52;;;-1.39;100.00
56681;BME280;42558;52.388;13.390;2022-12-10T11:16:21;100557.60;;;-1.37;100.00
56681;BME280;42558;52.388;13.390;2022-12-10T11:19:03;100554.16;;;-1.33;100.00
56681;BME280;42558;52.388;13.390;2022-12-10T11:21:34;100552.48;;;-1.26;100.00
56681;BME280;42558;52.388;13.390;2022-12-10T11:24:11;100549.39;;;-1.23;100.00
56681;BME280;42558;52.388;13.390;2022-12-10T11:30:09;100549.31;;;-1.28;100.00
56681;BME280;42558;52.388;13.390;2022-12-10T11:33:22;100548.93;;;-1.38;100.00
56681;BME280;42558;52.388;13.390;2022-12-10T11:36:06;100547.42;;;-1.34;100.00
56681;BME280;42558;52.388;13.390;2022-12-10T11:39:08;100547.17;;;-1.38;100.00
56681;BME280;42558;52.388;13.390;2022-12-10T11:41:43;100542.34;;;-1.42;100.00
56681;BME280;42558;52.388;13.390;2022-12-10T11:44:47;100546.33;;;-1.41;100.00
56681;BME280;42558;52.388;13.390;2022-12-10T11:50:57;100542.49;;;-1.35;100.00
56681;BME280;42558;52.388;13.390;2022-12-10T11:56:31;100543.77;;;-1.34;100.00
56681;BME280;42558;52.388;13.390;2022-12-10T11:59:39;100548.75;;;-1.32;100.00
56681;BME280;42558;52.388;13.390;2022-12-10T12:05:58;100555.31;;;-1.31;100.00
56681;BME280;42558;52.388;13.390;2022-12-10T12:14:29;100554.98;;;-1.28;100.00
56681;BME280;42558;52.388;13.390;2022-12-10T12:17:34;100559.84;;;-1.33;100.00
56681;BME280;42558;52.388;13.390;2022-12-10T12:22:54;100557.35;;;-1.26;100.00
56681;BME280;42558;52.388;13.390;2022-12-10T12:25:36;100557.97;;;-1.18;100.00
56681;BME280;42558;52.388;13.390;2022-12-10T12:28:24;100556.34;;;-1.16;100.00
56681;BME280;42558;52.388;13.390;2022-12-10T12:31:15;100559.82;;;-1.22;100.00
56681;BME280;42558;52.388;13.390;2022-12-10T12:33:54;100556.36;;;-1.28;100.00
56681;BME280;42558;52.388;13.390;2022-12-10T12:36:34;100560.05;;;-1.36;100.00
56681;BME280;42558;52.388;13.390;2022-12-10T12:42:25;100566.04;;;-1.37;100.00
56681;BME280;42558;52.388;13.390;2022-12-10T12:45:10;100565.83;;;-1.34;100.00
56681;BME280;42558;52.388;13.390;2022-12-10T12:48:32;100565.11;;;-1.34;100.00
56681;BME280;42558;52.388;13.390;2022-12-10T12:53:57;100568.23;;;-1.41;100.00
56681;BME280;42558;52.388;13.390;2022-12-10T13:00:08;100568.96;;;-1.46;100.00
56681;BME280;42558;52.388;13.390;2022-12-10T13:02:53;100569.47;;;-1.52;100.00
56681;BME280;42558;52.388;13.390;2022-12-10T13:05:35;100570.62;;;-1.50;100.00
56681;BME280;42558;52.388;13.390;2022-12-10T13:42:44;100594.16;;;-1.63;100.00
56681;BME280;42558;52.388;13.390;2022-12-10T13:45:35;100595.21;;;-1.66;100.00
56681;BME280;42558;52.388;13.390;2022-12-10T13:48:30;100594.05;;;-1.62;100.00
56681;BME280;42558;52.388;13.390;2022-12-10T14:00:14;100607.44;;;-1.71;100.00
56681;BME280;42558;52.388;13.390;2022-12-10T14:03:58;100608.00;;;-1.76;100.00
56681;BME280;42558;52.388;13.390;2022-12-10T14:06:20;100605.66;;;-1.78;100.00
56681;BME280;42558;52.388;13.390;2022-12-10T14:09:13;100603.60;;;-1.81;100.00
56681;BME280;42558;52.388;13.390;2022-12-10T14:11:53;100604.44;;;-1.81;100.00
56681;BME280;42558;52.388;13.390;2022-12-10T14:14:40;100609.15;;;-1.80;100.00
56681;BME280;42558;52.388;13.390;2022-12-10T14:17:31;100607.54;;;-1.78;100.00
56681;BME280;42558;52.388;13.390;2022-12-10T14:20:05;100608.78;;;-1.83;100.00
56681;BME280;42558;52.388;13.390;2022-12-10T14:22:51;100609.11;;;-1.86;100.00
56681;BME280;42558;52.388;13.390;2022-12-10T14:25:22;100610.16;;;-1.83;100.00
56681;BME280;42558;52.388;13.390;2022-12-10T14:27:54;100610.11;;;-1.84;100.00
56681;BME280;42558;52.388;13.390;2022-12-10T14:30:26;100611.23;;;-1.85;100.00
56681;BME280;42558;52.388;13.390;2022-12-10T14:32:59;100609.39;;;-1.87;100.00
56681;BME280;42558;52.388;13.390;2022-12-10T14:35:29;100606.81;;;-1.87;100.00
56681;BME280;42558;52.388;13.390;2022-12-10T14:37:59;100606.80;;;-1.85;100.00
56681;BME280;42558;52.388;13.390;2022-12-10T14:40:41;100612.62;;;-1.86;100.00
56681;BME280;42558;52.388;13.390;2022-12-10T14:43:18;100613.36;;;-1.87;100.00
56681;BME280;42558;52.388;13.390;2022-12-10T14:45:58;100612.71;;;-1.84;100.00
56681;BME280;42558;52.388;13.390;2022-12-10T14:48:27;100614.00;;;-1.82;100.00
56681;BME280;42558;52.388;13.390;2022-12-10T14:51:13;100619.90;;;-1.79;100.00